Time;durP1;ratioP1;P1;durP2;ratioP2;P2;SDS_P1;SDS_P2;PMS_P1;PMS_P2;Temp;Humidity;BMP_temperature;BMP_pressure;BME280_temperature;BME280_humidity;BME280_pressure;Samples;Min_cycle;Max_cycle;Signal;HPM_P1;HPM_P2
2021/10/23 00:03:00;;;;;;;2.63;0.83;;;;;;;6.36;70.37;98735.05;2175370;82;20965;-78
2021/10/23 00:06:00;;;;;;;5.70;1.20;;;;;;;6.28;71.14;98734.84;2175341;82;20929;-77
2021/10/23 00:09:01;;;;;;;0.93;0.90;;;;;;;6.21;72.06;98734.22;2153136;82;21318;-78
2021/10/23 00:12:01;;;;;;;3.90;1.30;;;;;;;6.18;70.54;98740.61;2151788;83;21365;-77
2021/10/23 00:15:02;;;;;;;2.03;1.00;;;;;;;6.17;70.12;98736.27;2152062;83;20930;-78
2021/10/23 00:18:02;;;;;;;2.33;1.20;;;;;;;6.14;71.23;98746.55;2151899;83;20927;-77
2021/10/23 00:21:03;;;;;;;1.67;0.80;;;;;;;6.05;72.47;98750.15;2151759;83;20989;-78
2021/10/23 00:24:03;;;;;;;2.27;1.00;;;;;;;5.93;71.67;98751.98;2152093;83;21386;-78
2021/10/23 00:27:04;;;;;;;2.80;1.23;;;;;;;5.83;72.87;98743.45;2152005;83;21298;-78
2021/10/23 00:30:04;;;;;;;2.97;1.20;;;;;;;5.73;72.18;98746.19;2152118;83;20966;-79
2021/10/23 00:33:05;;;;;;;1.50;1.23;;;;;;;5.66;72.06;98748.14;2151980;83;20926;-79
2021/10/23 00:36:05;;;;;;;4.07;1.17;;;;;;;5.63;72.00;98744.16;2152010;83;20938;-78
2021/10/23 00:39:06;;;;;;;6.33;1.37;;;;;;;5.62;72.49;98743.70;2151983;83;20899;-78
2021/10/23 00:42:06;;;;;;;2.30;1.30;;;;;;;5.64;73.65;98754.10;2151959;83;20899;-78
2021/10/23 00:45:07;;;;;;;2.43;1.53;;;;;;;5.65;73.14;98754.56;2151879;83;21326;-77
2021/10/23 00:48:07;;;;;;;2.63;1.47;;;;;;;5.66;73.73;98767.56;2152049;83;20974;-78
2021/10/23 00:51:08;;;;;;;3.10;1.40;;;;;;;5.68;73.22;98764.59;2151967;83;20990;-78
2021/10/23 00:54:08;;;;;;;4.50;1.87;;;;;;;5.71;73.03;98775.47;2151932;83;20966;-79
2021/10/23 00:57:09;;;;;;;2.97;1.20;;;;;;;5.69;73.27;98762.47;2151720;83;20962;-78
2021/10/23 01:00:09;;;;;;;3.50;1.20;;;;;;;5.72;72.68;98768.16;2151965;83;21290;-79
2021/10/23 01:03:10;;;;;;;1.97;1.30;;;;;;;5.73;73.56;98775.97;2152230;83;20926;-79
2021/10/23 01:06:10;;;;;;;6.47;1.77;;;;;;;5.75;72.97;98785.08;2152005;83;20929;-79
2021/10/23 01:09:11;;;;;;;2.27;1.13;;;;;;;5.76;73.59;98793.31;2179132;82;20976;-78
2021/10/23 01:12:11;;;;;;;1.77;1.03;;;;;;;5.75;74.43;98803.21;2181398;82;20997;-79
2021/10/23 01:15:12;;;;;;;1.93;0.97;;;;;;;5.73;74.03;98813.53;2181558;82;21381;-77
2021/10/23 01:18:12;;;;;;;6.60;1.27;;;;;;;5.73;74.07;98801.88;2181777;82;20897;-78
2021/10/23 01:21:12;;;;;;;3.30;1.40;;;;;;;5.73;73.59;98808.34;2181547;82;21027;-79
2021/10/23 01:24:13;;;;;;;2.03;1.70;;;;;;;5.72;74.60;98814.36;2181631;82;20910;-78
2021/10/23 01:27:13;;;;;;;2.30;1.47;;;;;;;5.73;73.34;98810.94;2181643;82;20898;-78
2021/10/23 01:30:14;;;;;;;4.00;1.83;;;;;;;5.71;74.31;98816.48;2181702;82;21339;-79
2021/10/23 01:33:14;;;;;;;3.63;1.40;;;;;;;5.72;73.67;98824.72;2181730;82;21344;-80
2021/10/23 01:36:16;;;;;;;3.80;1.60;;;;;;;5.74;74.09;98828.23;2181537;82;20925;-78
2021/10/23 01:39:17;;;;;;;3.93;1.70;;;;;;;5.73;74.36;98832.95;2181744;82;20977;-79
2021/10/23 01:42:17;;;;;;;5.37;1.90;;;;;;;5.70;74.27;98834.16;2101061;85;20954;-78
2021/10/23 01:45:18;;;;;;;3.53;1.90;;;;;;;5.69;73.61;98853.53;2130624;84;20970;-78
2021/10/23 01:48:19;;;;;;;4.33;1.70;;;;;;;5.67;74.33;98847.42;2101070;85;20922;-79
2021/10/23 01:51:19;;;;;;;3.30;1.73;;;;;;;5.66;73.80;98854.73;2130492;84;20982;-78
2021/10/23 01:54:20;;;;;;;4.27;1.60;;;;;;;5.68;74.33;98875.95;2101027;85;20965;-78
2021/10/23 01:57:21;;;;;;;2.37;1.60;;;;;;;5.75;74.39;98896.04;2130911;84;20929;-79
2021/10/23 02:00:21;;;;;;;4.27;1.90;;;;;;;5.80;74.33;98903.95;2101180;85;20913;-80
2021/10/23 02:03:22;;;;;;;3.67;1.60;;;;;;;5.83;74.34;98896.70;2130817;84;20929;-79
2021/10/23 02:06:23;;;;;;;9.53;1.70;;;;;;;5.83;73.87;98900.58;2100892;85;20989;-78
2021/10/23 02:09:23;;;;;;;4.90;1.80;;;;;;;5.76;74.11;98906.86;2130545;84;20966;-80
2021/10/23 02:12:24;;;;;;;4.73;1.87;;;;;;;5.70;73.24;98904.08;2101128;85;20997;-80
2021/10/23 02:15:24;;;;;;;4.87;2.03;;;;;;;5.68;73.24;98910.92;2130949;84;20933;-80
2021/10/23 02:18:26;;;;;;;5.00;1.90;;;;;;;5.67;73.00;98916.93;2101111;85;21312;-78
2021/10/23 02:21:26;;;;;;;2.27;1.47;;;;;;;5.69;73.13;98919.16;2130709;83;20992;-78
2021/10/23 02:24:27;;;;;;;4.87;2.10;;;;;;;5.73;73.16;98919.72;2100993;85;21353;-78
2021/10/23 02:27:27;;;;;;;4.23;2.00;;;;;;;5.80;72.94;98922.09;2130781;84;20982;-78
2021/10/23 02:30:28;;;;;;;5.20;2.10;;;;;;;5.86;73.00;98920.11;2100997;85;20926;-78
2021/10/23 02:33:29;;;;;;;12.10;2.10;;;;;;;5.88;72.97;98920.62;2130808;84;20918;-78
2021/10/23 02:36:29;;;;;;;6.23;2.20;;;;;;;5.90;73.25;98924.59;2101356;85;20918;-79
2021/10/23 02:39:30;;;;;;;5.43;1.87;;;;;;;5.90;72.45;98924.17;2130582;84;20950;-79
2021/10/23 02:42:30;;;;;;;3.67;2.17;;;;;;;5.90;72.86;98930.64;2101034;85;20954;-78
2021/10/23 02:45:30;;;;;;;7.87;1.93;;;;;;;5.85;72.37;98933.47;2130515;84;20942;-78
2021/10/23 02:48:31;;;;;;;9.73;2.10;;;;;;;5.79;72.00;98925.92;2101045;85;20922;-78
2021/10/23 02:51:31;;;;;;;8.07;2.10;;;;;;;5.75;71.81;98931.42;2130292;84;21089;-78
2021/10/23 02:54:32;;;;;;;6.47;2.20;;;;;;;5.74;72.27;98930.54;2100920;85;20945;-77
2021/10/23 02:57:32;;;;;;;3.30;2.00;;;;;;;5.67;71.89;98929.88;2130597;84;20949;-78
2021/10/23 03:00:33;;;;;;;7.80;2.67;;;;;;;5.64;71.97;98937.97;2100819;85;20973;-78
2021/10/23 03:03:33;;;;;;;4.77;2.03;;;;;;;5.57;72.03;98930.41;2130231;84;20954;-78
2021/10/23 03:06:34;;;;;;;8.17;2.50;;;;;;;5.52;72.67;98937.15;2100936;85;20922;-77
2021/10/23 03:09:34;;;;;;;7.20;2.30;;;;;;;5.48;72.98;98944.77;2122817;84;20974;-78
2021/10/23 03:12:35;;;;;;;5.23;2.20;;;;;;;5.44;73.29;98942.07;2121693;84;21017;-77
2021/10/23 03:15:35;;;;;;;5.70;2.30;;;;;;;5.47;72.98;98957.24;2121811;84;21022;-78
2021/10/23 03:18:36;;;;;;;3.90;2.20;;;;;;;5.52;73.57;98950.51;2121756;84;21400;-78
2021/10/23 03:21:36;;;;;;;6.17;2.53;;;;;;;5.58;73.05;98962.36;2121518;84;21368;-79
2021/10/23 03:24:37;;;;;;;7.97;3.20;;;;;;;5.61;72.90;98956.87;2121793;84;20953;-77
2021/10/23 03:27:37;;;;;;;6.17;2.33;;;;;;;5.65;72.85;98963.91;2121880;84;21002;-78
2021/10/23 03:30:38;;;;;;;6.80;2.40;;;;;;;5.72;72.60;98967.58;2121628;84;21013;-78
2021/10/23 03:33:38;;;;;;;7.53;2.50;;;;;;;5.79;72.88;98969.95;2121917;84;20969;-78
2021/10/23 03:36:39;;;;;;;5.93;3.00;;;;;;;5.82;72.32;98970.06;2122503;84;20937;-78
2021/10/23 03:39:39;;;;;;;5.47;2.53;;;;;;;5.82;73.06;98971.35;2121911;84;21389;-79
2021/10/23 03:42:40;;;;;;;8.90;2.63;;;;;;;5.82;72.65;98982.59;2121394;84;21002;-78
2021/10/23 03:45:40;;;;;;;9.80;3.57;;;;;;;5.81;72.58;98989.02;2120870;84;20990;-78
2021/10/23 03:48:41;;;;;;;8.67;3.70;;;;;;;5.72;72.42;98985.30;2120701;84;20910;-78
2021/10/23 03:51:41;;;;;;;12.83;2.73;;;;;;;5.69;73.06;98989.08;2120916;84;21362;-79
2021/10/23 03:54:42;;;;;;;8.07;3.00;;;;;;;5.67;73.18;98992.03;2121036;84;21005;-78
2021/10/23 03:57:43;;;;;;;5.83;3.03;;;;;;;5.61;72.91;98986.66;2122278;84;21001;-78
2021/10/23 04:00:43;;;;;;;5.40;3.13;;;;;;;5.47;73.58;98990.48;2121702;84;20922;-78
2021/10/23 04:03:44;;;;;;;9.63;2.90;;;;;;;5.34;73.14;99001.25;2121836;84;20958;-79
2021/10/23 04:06:45;;;;;;;7.67;2.73;;;;;;;5.20;73.47;99007.23;2121895;84;20958;-78
2021/10/23 04:09:45;;;;;;;11.73;3.07;;;;;;;5.11;74.02;99008.16;2121240;84;21020;-77
2021/10/23 04:12:45;;;;;;;11.50;3.37;;;;;;;5.02;73.79;99011.72;2120963;84;21384;-77
2021/10/23 04:15:46;;;;;;;11.50;3.93;;;;;;;4.93;73.86;99008.38;2121288;84;21696;-77
2021/10/23 04:18:47;;;;;;;8.30;3.20;;;;;;;4.89;73.65;99010.39;2121455;84;20994;-79
2021/10/23 04:21:47;;;;;;;10.23;3.50;;;;;;;4.82;74.62;99029.09;2121429;84;21001;-78
2021/10/23 04:24:50;;;;;;;6.13;3.10;;;;;;;4.74;74.43;99035.27;2120832;84;21034;-77
2021/10/23 04:27:51;;;;;;;10.60;2.80;;;;;;;4.69;74.25;99031.63;2175745;82;20990;-79
2021/10/23 04:30:51;;;;;;;7.47;2.97;;;;;;;4.64;74.50;99038.33;2175616;82;20922;-76
2021/10/23 04:33:52;;;;;;;5.70;3.20;;;;;;;4.60;74.32;99039.45;2175760;82;21008;-77
2021/10/23 04:36:53;;;;;;;8.70;3.40;;;;;;;4.57;75.10;99043.21;2175183;82;20976;-78
2021/10/23 04:39:54;;;;;;;15.53;3.93;;;;;;;4.53;74.74;99049.09;2175584;82;20957;-79
2021/10/23 04:42:54;;;;;;;9.27;3.20;;;;;;;4.53;74.36;99045.20;2175406;82;20961;-78
2021/10/23 04:45:55;;;;;;;11.93;3.87;;;;;;;4.57;74.53;99050.97;2174247;82;20925;-78
2021/10/23 04:48:55;;;;;;;13.73;4.17;;;;;;;6.00;81.38;99057.07;2174745;82;20921;-78
2021/10/23 04:51:56;;;;;;;11.93;3.97;;;;;;;8.78;77.81;99053.25;2175172;82;20997;-79
2021/10/23 04:54:56;;;;;;;16.93;4.20;;;;;;;10.81;70.19;99053.58;2174670;82;20937;-79
2021/10/23 04:57:57;;;;;;;10.03;3.20;;;;;;;12.20;59.61;99041.30;2174631;82;20953;-80
2021/10/23 05:00:59;;;;;;;12.53;4.50;;;;;;;11.26;57.57;99047.20;2174440;82;20968;-80
2021/10/23 05:04:00;;;;;;;14.73;6.23;;;;;;;9.15;58.77;99050.58;2173221;82;21452;-77
2021/10/23 05:07:00;;;;;;;12.70;5.70;;;;;;;7.83;62.11;99058.70;2173532;82;20946;-77
2021/10/23 05:10:01;;;;;;;10.63;4.97;;;;;;;7.10;64.71;99063.15;2179081;82;20972;-77
2021/10/23 05:13:01;;;;;;;16.57;6.00;;;;;;;6.62;65.69;99069.89;2179993;82;20985;-78
2021/10/23 05:16:02;;;;;;;16.50;3.83;;;;;;;6.32;67.54;99063.75;2179945;82;21313;-77
2021/10/23 05:19:02;;;;;;;11.07;3.57;;;;;;;6.06;68.49;99083.19;2180484;82;21357;-78
2021/10/23 05:22:02;;;;;;;8.83;3.03;;;;;;;5.89;69.64;99074.35;2180802;82;20969;-76
2021/10/23 05:25:06;;;;;;;11.13;3.23;;;;;;;5.76;69.98;99073.94;2181234;82;20969;-77
2021/10/23 05:28:06;;;;;;;9.33;4.30;;;;;;;5.69;70.66;99073.67;2181387;82;21321;-78
2021/10/23 05:31:07;;;;;;;8.87;3.40;;;;;;;5.63;71.19;99083.41;2180827;82;20941;-77
2021/10/23 05:34:07;;;;;;;13.37;3.73;;;;;;;5.58;70.94;99075.89;2181098;82;20989;-77
2021/10/23 05:37:08;;;;;;;8.23;3.57;;;;;;;5.56;71.84;99074.95;2180793;82;20921;-78
2021/10/23 05:40:08;;;;;;;12.63;5.63;;;;;;;5.52;71.62;99082.14;2180853;82;20959;-77
2021/10/23 05:43:09;;;;;;;9.90;3.90;;;;;;;5.50;71.73;99088.98;2099500;85;21397;-76
2021/10/23 05:46:09;;;;;;;11.37;4.57;;;;;;;5.48;72.67;99098.81;2129541;84;20965;-77
2021/10/23 05:49:10;;;;;;;11.67;4.47;;;;;;;5.46;72.47;99105.23;2100191;85;21021;-76
2021/10/23 05:52:11;;;;;;;15.10;4.63;;;;;;;5.47;72.74;99099.22;2129536;84;21005;-77
2021/10/23 05:55:11;;;;;;;12.67;5.60;;;;;;;5.49;72.80;99107.92;2099933;85;20965;-77
2021/10/23 05:58:12;;;;;;;14.07;5.43;;;;;;;5.51;72.85;99110.16;2130034;84;20952;-78
2021/10/23 06:01:12;;;;;;;11.40;5.83;;;;;;;5.56;72.27;99103.85;2100047;85;20988;-77
2021/10/23 06:04:14;;;;;;;19.73;5.20;;;;;;;5.60;72.60;99114.37;2129535;84;20981;-77
2021/10/23 06:07:15;;;;;;;14.47;4.03;;;;;;;5.65;72.24;99107.64;2099949;85;21462;-78
2021/10/23 06:10:15;;;;;;;11.93;4.13;;;;;;;5.68;72.34;99114.23;2122027;84;21048;-79
2021/10/23 06:13:18;;;;;;;17.77;4.40;;;;;;;5.72;72.17;99119.98;2121108;84;20974;-78
2021/10/23 06:16:18;;;;;;;14.53;4.53;;;;;;;5.74;72.15;99109.27;2121383;84;21131;-77
2021/10/23 06:19:19;;;;;;;12.83;4.27;;;;;;;5.78;72.22;99123.20;2121516;84;20946;-77
2021/10/23 06:22:19;;;;;;;14.40;3.70;;;;;;;5.80;72.07;99124.55;2121738;84;21084;-77
2021/10/23 06:25:20;;;;;;;14.93;4.23;;;;;;;5.80;72.23;99134.50;2121481;84;20956;-76
2021/10/23 06:28:21;;;;;;;11.80;4.43;;;;;;;5.79;72.19;99136.62;2121248;84;21034;-77
2021/10/23 06:31:21;;;;;;;19.90;4.33;;;;;;;5.78;72.16;99139.16;2121062;84;21614;-77
2021/10/23 06:34:22;;;;;;;11.50;4.07;;;;;;;5.82;72.17;99151.39;2121876;84;21362;-77
2021/10/23 06:37:25;;;;;;;14.13;4.00;;;;;;;5.79;72.45;99154.75;2122013;84;21026;-78
2021/10/23 06:40:26;;;;;;;12.00;4.53;;;;;;;5.80;72.40;99160.81;2121638;84;21005;-77
2021/10/23 06:43:26;;;;;;;16.00;6.30;;;;;;;5.86;72.38;99166.22;2121062;84;21619;-78
2021/10/23 06:46:27;;;;;;;27.53;5.70;;;;;;;5.92;72.12;99161.28;2121381;84;20942;-76
2021/10/23 06:49:27;;;;;;;12.77;3.53;;;;;;;6.00;71.88;99163.73;2121876;84;20953;-78
2021/10/23 06:52:28;;;;;;;15.63;5.37;;;;;;;6.08;71.62;99173.09;2121836;84;21013;-77
2021/10/23 06:55:28;;;;;;;15.53;3.60;;;;;;;6.12;71.51;99159.41;2122181;84;20982;-78
2021/10/23 06:58:28;;;;;;;13.47;4.70;;;;;;;6.17;71.31;99167.81;2121265;84;20954;-78
2021/10/23 07:01:29;;;;;;;13.33;5.10;;;;;;;6.22;71.15;99175.75;2120973;84;21002;-77
2021/10/23 07:04:30;;;;;;;14.63;4.83;;;;;;;6.22;71.03;99185.70;2120411;84;20954;-77
2021/10/23 07:07:30;;;;;;;10.73;3.17;;;;;;;6.24;70.94;99179.27;2120285;84;20974;-77
2021/10/23 07:10:31;;;;;;;12.57;4.80;;;;;;;6.25;70.50;99175.86;2120606;84;21697;-77
2021/10/23 07:13:31;;;;;;;14.40;3.87;;;;;;;6.27;70.36;99190.63;2120784;84;20978;-77
2021/10/23 07:16:32;;;;;;;13.30;4.23;;;;;;;6.31;70.32;99199.39;2120920;84;20981;-77
2021/10/23 07:19:32;;;;;;;11.03;4.53;;;;;;;6.31;70.04;99205.88;2120986;84;20998;-79
2021/10/23 07:22:33;;;;;;;14.03;4.83;;;;;;;6.32;70.16;99208.52;2121043;84;20973;-76
2021/10/23 07:25:34;;;;;;;12.60;4.67;;;;;;;6.34;69.50;99217.23;2120761;84;20938;-76
2021/10/23 07:28:34;;;;;;;16.80;4.20;;;;;;;6.39;69.39;99220.86;2121259;84;20958;-76
2021/10/23 07:31:35;;;;;;;19.40;4.57;;;;;;;6.41;69.07;99230.41;2121838;84;20962;-78
2021/10/23 07:34:35;;;;;;;18.33;5.23;;;;;;;6.41;69.27;99231.70;2121689;84;21005;-77
2021/10/23 07:37:38;;;;;;;13.57;4.47;;;;;;;6.45;69.08;99223.20;2121918;84;20934;-77
2021/10/23 07:40:39;;;;;;;12.67;4.73;;;;;;;6.51;69.21;99216.51;2121714;84;20997;-78
2021/10/23 07:43:43;;;;;;;19.60;4.83;;;;;;;6.59;68.92;99218.06;2122044;84;21298;-77
2021/10/23 07:46:45;;;;;;;16.82;4.47;;;;;;;6.66;68.37;99255.05;2121838;84;21010;-77
2021/10/23 07:49:46;;;;;;;8.20;3.30;;;;;;;6.71;68.55;99228.84;2121973;84;20906;-78
2021/10/23 07:52:46;;;;;;;17.37;5.20;;;;;;;6.71;68.20;99232.73;2123944;83;21372;-78
2021/10/23 07:55:47;;;;;;;14.23;4.33;;;;;;;6.80;68.22;99236.93;2134161;83;21029;-77
2021/10/23 07:58:47;;;;;;;13.23;4.73;;;;;;;6.90;67.73;99233.80;2123113;83;20986;-76
2021/10/23 08:01:48;;;;;;;18.90;5.30;;;;;;;6.95;67.31;99237.88;2120936;84;20946;-77
2021/10/23 08:04:48;;;;;;;17.70;5.30;;;;;;;7.02;67.37;99240.72;2120434;84;20958;-76
2021/10/23 08:07:48;;;;;;;19.27;5.93;;;;;;;7.03;67.09;99243.78;2120546;84;20949;-76
2021/10/23 08:10:49;;;;;;;10.43;4.17;;;;;;;7.17;66.78;99239.02;2120930;84;20974;-78
2021/10/23 08:13:49;;;;;;;12.27;4.00;;;;;;;7.26;66.53;99247.52;2120753;84;20974;-78
2021/10/23 08:16:51;;;;;;;18.07;5.63;;;;;;;7.33;65.86;99247.76;2120904;84;20965;-78
2021/10/23 08:19:54;;;;;;;19.27;6.10;;;;;;;7.40;66.01;99259.22;2120919;84;21038;-78
2021/10/23 08:22:54;;;;;;;13.93;5.70;;;;;;;7.49;65.71;99261.21;2174527;82;21404;-78
2021/10/23 08:25:54;;;;;;;13.77;4.27;;;;;;;7.51;65.48;99257.83;2174548;82;20905;-78
2021/10/23 08:28:55;;;;;;;12.23;4.17;;;;;;;7.52;64.87;99266.09;2174668;82;20962;-78
2021/10/23 08:31:55;;;;;;;12.33;4.17;;;;;;;7.61;65.05;99268.08;2174658;82;20988;-77
2021/10/23 08:34:56;;;;;;;11.53;4.47;;;;;;;7.61;64.85;99276.75;2175505;82;21355;-79
2021/10/23 08:37:59;;;;;;;17.90;5.23;;;;;;;7.67;64.64;99268.27;2175530;82;20913;-78
2021/10/23 08:41:00;;;;;;;13.00;4.47;;;;;;;7.72;64.53;99291.37;2175695;82;20989;-78
2021/10/23 08:44:00;;;;;;;13.83;4.93;;;;;;;7.76;64.15;99288.45;2175302;82;20933;-77
2021/10/23 08:47:01;;;;;;;16.10;4.87;;;;;;;7.79;64.36;99285.94;2175264;82;20977;-77
2021/10/23 08:50:01;;;;;;;15.33;5.37;;;;;;;7.93;63.87;99287.26;2174883;82;20914;-77
2021/10/23 08:53:02;;;;;;;17.17;4.87;;;;;;;7.98;63.62;99290.45;2175116;82;20965;-77
2021/10/23 08:56:02;;;;;;;14.37;4.27;;;;;;;8.09;63.73;99294.66;2174938;82;20906;-76
2021/10/23 08:59:03;;;;;;;15.10;4.43;;;;;;;8.23;62.70;99309.36;2174357;82;21282;-75
2021/10/23 09:02:03;;;;;;;18.73;5.20;;;;;;;8.28;62.87;99302.56;2174937;82;21608;-77
2021/10/23 09:05:04;;;;;;;19.77;5.10;;;;;;;8.33;62.63;99311.80;2174015;82;20925;-77
2021/10/23 09:08:04;;;;;;;21.80;6.90;;;;;;;8.50;62.46;99299.75;2174505;82;20910;-78
2021/10/23 09:11:05;;;;;;;17.03;5.70;;;;;;;8.69;62.20;99324.58;2153890;82;20957;-77
2021/10/23 09:14:05;;;;;;;18.73;6.30;;;;;;;8.70;61.45;99325.05;2151307;83;20962;-76
2021/10/23 09:17:06;;;;;;;16.43;5.40;;;;;;;8.67;61.53;99311.03;2151778;83;20911;-77
2021/10/23 09:20:06;;;;;;;10.17;4.53;;;;;;;8.71;61.94;99322.02;2152220;83;21298;-79
2021/10/23 09:23:07;;;;;;;23.10;6.47;;;;;;;8.72;61.46;99326.38;2149809;83;21378;-79
2021/10/23 09:26:09;;;;;;;15.87;5.83;;;;;;;8.81;61.53;99321.42;2151915;83;20970;-78
2021/10/23 09:29:13;;;;;;;17.80;6.30;;;;;;;9.03;61.32;99317.23;2150561;83;20989;-77
2021/10/23 09:32:13;;;;;;;18.57;5.83;;;;;;;9.15;60.58;99315.35;2058289;87;21298;-77
2021/10/23 09:35:14;;;;;;;19.77;5.60;;;;;;;9.12;60.18;99328.30;2151050;82;21188;-78
2021/10/23 09:38:14;;;;;;;23.37;5.83;;;;;;;9.15;60.30;99331.86;2151109;83;20930;-77
2021/10/23 09:41:17;;;;;;;21.83;5.83;;;;;;;9.19;59.97;99330.21;2151892;83;21345;-78
2021/10/23 09:44:17;;;;;;;20.93;6.10;;;;;;;9.21;60.12;99329.83;2151976;83;20949;-77
2021/10/23 09:47:18;;;;;;;18.23;4.87;;;;;;;9.36;59.56;99339.75;2152104;83;20963;-78
2021/10/23 09:50:21;;;;;;;15.13;4.80;;;;;;;9.70;58.85;99328.00;2152125;83;20911;-77
2021/10/23 09:53:21;;;;;;;24.53;5.27;;;;;;;9.84;58.25;99337.44;2151990;83;20981;-77
2021/10/23 09:56:24;;;;;;;21.03;4.70;;;;;;;9.98;58.23;99334.71;2152169;83;21574;-78
2021/10/23 09:59:25;;;;;;;16.27;4.43;;;;;;;10.15;59.21;99338.56;2151666;83;20939;-77
2021/10/23 10:02:26;;;;;;;15.53;4.43;;;;;;;10.48;56.55;99336.26;2058435;87;21353;-77
2021/10/23 10:05:26;;;;;;;24.33;4.83;;;;;;;10.14;56.15;99351.58;2151480;83;21309;-76
2021/10/23 10:08:27;;;;;;;21.50;5.83;;;;;;;9.70;57.01;99363.62;2058859;87;20965;-77
2021/10/23 10:11:27;;;;;;;22.60;5.83;;;;;;;9.51;57.64;99357.94;2178788;82;21147;-76
2021/10/23 10:14:33;;;;;;;15.30;4.57;;;;;;;9.56;58.14;99355.05;2181116;82;20979;-77
2021/10/23 10:17:30;;;;;;;18.80;5.60;;;;;;;9.80;57.46;99346.03;2180571;81;20945;-77
2021/10/23 10:20:32;;;;;;;19.53;6.27;;;;;;;9.94;57.00;99359.39;2180925;82;20956;-76
2021/10/23 10:23:33;;;;;;;16.70;4.10;;;;;;;9.88;55.50;99364.92;2100686;85;21115;-76
2021/10/23 10:26:34;;;;;;;22.50;5.23;;;;;;;9.72;56.19;99361.92;2130034;84;21001;-78
2021/10/23 10:29:34;;;;;;;17.00;5.10;;;;;;;9.71;56.20;99371.89;2100763;85;21005;-78
2021/10/23 10:32:40;;;;;;;19.10;4.90;;;;;;;9.67;56.19;99367.45;2129224;84;20964;-77
2021/10/23 10:39:06;;;;;;;17.93;4.30;;;;;;;9.52;56.75;99359.70;2111235;84;20961;-78
2021/10/23 10:45:03;;;;;;;17.23;4.67;;;;;;;9.20;57.14;99380.16;2110582;84;21358;-78
2021/10/23 10:48:03;;;;;;;14.60;3.97;;;;;;;9.07;57.69;99377.66;2100609;85;20992;-78
2021/10/23 10:51:04;;;;;;;11.97;3.90;;;;;;;9.02;58.25;99370.56;2130598;84;20941;-78
2021/10/23 10:54:05;;;;;;;12.20;4.10;;;;;;;8.99;58.71;99369.19;2100833;85;21004;-78
2021/10/23 10:57:06;;;;;;;17.77;4.40;;;;;;;8.91;58.90;99371.17;2130584;84;21341;-77
2021/10/23 11:00:07;;;;;;;28.23;4.57;;;;;;;8.87;59.04;99365.42;2100332;85;20964;-78
2021/10/23 11:03:07;;;;;;;22.90;4.60;;;;;;;8.89;59.06;99370.25;2129816;84;20949;-78
2021/10/23 11:06:08;;;;;;;17.87;5.10;;;;;;;9.04;58.86;99372.80;2100811;85;20965;-77
2021/10/23 11:09:11;;;;;;;18.47;4.90;;;;;;;9.19;58.65;99369.28;2128072;84;20938;-78
2021/10/23 11:12:12;;;;;;;11.83;3.83;;;;;;;9.37;57.50;99370.16;2058661;87;20945;-78
2021/10/23 11:15:12;;;;;;;11.87;4.27;;;;;;;9.50;57.08;99361.81;2058835;87;21001;-78
2021/10/23 11:18:13;;;;;;;16.90;4.00;;;;;;;9.70;56.26;99357.09;2057727;87;20969;-78
2021/10/23 11:21:13;;;;;;;15.57;4.50;;;;;;;9.79;55.46;99354.70;2057724;87;20996;-78
2021/10/23 11:24:14;;;;;;;13.77;3.53;;;;;;;10.00;54.00;99342.57;2057959;87;21021;-79
2021/10/23 11:27:14;;;;;;;10.23;3.70;;;;;;;10.16;52.20;99339.02;2058262;87;20968;-77
2021/10/23 11:30:15;;;;;;;13.00;4.53;;;;;;;10.41;52.62;99340.90;2058217;87;21001;-78
2021/10/23 11:33:17;;;;;;;21.67;6.87;;;;;;;10.70;52.77;99344.96;2058442;86;21034;-78
2021/10/23 11:36:18;;;;;;;19.77;7.30;;;;;;;10.99;51.83;99347.23;2058656;86;21020;-77
2021/10/23 11:39:18;;;;;;;19.55;8.00;;;;;;;11.21;52.22;99342.84;2059282;86;20930;-77
2021/10/23 11:42:19;;;;;;;18.12;5.33;;;;;;;11.58;51.19;99339.13;2059095;87;21345;-76
2021/10/23 11:45:19;;;;;;;13.72;4.83;;;;;;;12.03;49.79;99339.38;2059209;87;21353;-77
2021/10/23 11:48:20;;;;;;;11.63;4.28;;;;;;;12.22;47.99;99341.85;2059197;86;20965;-77
2021/10/23 11:51:20;;;;;;;7.72;3.22;;;;;;;12.24;48.57;99351.91;2136130;83;20993;-76
2021/10/23 11:54:21;;;;;;;7.90;3.25;;;;;;;11.73;46.81;99358.09;2136033;83;21040;-77
2021/10/23 11:57:21;;;;;;;18.63;3.80;;;;;;;11.19;47.89;99352.39;2136094;83;20993;-76
2021/10/23 12:00:22;;;;;;;7.90;2.97;;;;;;;10.67;49.50;99365.79;2135747;83;20961;-76
2021/10/23 12:03:22;;;;;;;19.97;4.57;;;;;;;10.18;51.96;99402.55;2136165;83;20997;-77
2021/10/23 12:06:23;;;;;;;7.57;2.67;;;;;;;9.62;55.59;99418.17;2134997;83;20972;-78
2021/10/23 12:09:23;;;;;;;10.23;3.30;;;;;;;8.81;62.04;99452.46;2138407;82;21334;-77
2021/10/23 12:12:24;;;;;;;12.33;4.10;;;;;;;7.96;68.36;99470.20;2099827;85;20960;-80
2021/10/23 12:15:25;;;;;;;12.10;4.80;;;;;;;7.25;70.46;99458.27;2128958;84;20993;-78
2021/10/23 12:18:26;;;;;;;23.33;8.37;;;;;;;6.86;71.29;99446.03;2099582;85;20998;-80
2021/10/23 12:21:27;;;;;;;29.90;10.33;;;;;;;6.85;72.19;99448.16;2128965;84;20976;-78
2021/10/23 12:24:27;;;;;;;47.97;15.13;;;;;;;6.98;72.76;99436.12;2098990;85;21015;-78
2021/10/23 12:27:28;;;;;;;27.23;9.03;;;;;;;7.10;72.54;99426.98;2129274;84;20918;-78
2021/10/23 12:30:29;;;;;;;20.23;8.03;;;;;;;7.13;72.88;99437.48;2099557;85;20982;-77
2021/10/23 12:33:29;;;;;;;12.97;5.40;;;;;;;7.08;73.33;99434.73;2129301;84;21694;-78
2021/10/23 12:36:30;;;;;;;17.80;6.30;;;;;;;6.97;73.81;99438.66;2100518;85;21405;-77
2021/10/23 12:39:30;;;;;;;15.93;5.10;;;;;;;6.85;74.80;99478.00;2130633;84;21306;-79
2021/10/23 12:42:31;;;;;;;7.63;3.47;;;;;;;6.67;76.15;99485.11;2101507;85;20906;-79
2021/10/23 12:45:31;;;;;;;6.67;2.87;;;;;;;6.39;77.66;99497.03;2132062;84;21005;-79
2021/10/23 12:48:31;;;;;;;10.10;4.43;;;;;;;6.04;77.47;99470.11;2101480;85;20961;-78
2021/10/23 12:51:32;;;;;;;31.80;13.77;;;;;;;5.98;77.20;99463.39;2131202;84;20994;-77
2021/10/23 12:54:32;;;;;;;50.87;21.33;;;;;;;6.05;77.82;99455.03;2101594;84;21372;-78
2021/10/23 12:57:33;;;;;;;10.90;4.77;;;;;;;6.20;77.42;99457.37;2130783;84;21353;-76
2021/10/23 13:00:34;;;;;;;9.47;3.80;;;;;;;6.34;77.92;99460.96;2100962;85;20946;-78
2021/10/23 13:03:34;;;;;;;7.70;3.97;;;;;;;6.47;78.23;99459.72;2131008;84;20990;-78
2021/10/23 13:06:35;;;;;;;11.63;4.03;;;;;;;6.47;77.30;99458.42;2101364;85;20921;-79
2021/10/23 13:09:35;;;;;;;14.83;6.07;;;;;;;6.46;77.23;99463.14;2129380;84;20945;-78
2021/10/23 13:12:36;;;;;;;16.53;5.77;;;;;;;6.48;77.36;99464.48;2106409;85;20998;-78
2021/10/23 13:15:39;;;;;;;24.13;9.80;;;;;;;6.52;77.28;99465.08;2059518;86;20926;-78
2021/10/23 13:18:39;;;;;;;20.27;8.57;;;;;;;6.59;77.77;99472.26;2059867;87;20977;-78
2021/10/23 13:21:40;;;;;;;20.90;8.63;;;;;;;6.66;77.72;99470.36;2059875;86;20985;-78
2021/10/23 13:24:41;;;;;;;16.00;7.03;;;;;;;6.75;78.54;99475.89;2059997;86;21020;-80
2021/10/23 13:27:41;;;;;;;10.00;5.37;;;;;;;6.79;76.11;99476.48;2137381;83;20970;-79
2021/10/23 13:30:42;;;;;;;16.67;7.00;;;;;;;6.70;75.93;99476.14;2137011;83;20982;-77
2021/10/23 13:33:42;;;;;;;24.17;10.00;;;;;;;6.65;75.94;99477.27;2137025;83;20977;-78
2021/10/23 13:36:43;;;;;;;21.10;9.50;;;;;;;6.60;75.61;99477.92;2136924;83;20949;-78
2021/10/23 13:39:43;;;;;;;20.20;9.97;;;;;;;6.55;76.07;99489.42;2137342;83;20985;-79
2021/10/23 13:42:44;;;;;;;14.73;7.07;;;;;;;6.50;75.74;99488.77;2137166;83;20977;-79
2021/10/23 13:45:44;;;;;;;10.53;5.50;;;;;;;6.47;74.99;99491.25;2136882;83;20926;-77
2021/10/23 13:48:45;;;;;;;14.87;7.03;;;;;;;6.45;75.15;99500.27;2136960;83;21353;-77
2021/10/23 13:51:45;;;;;;;11.03;4.60;;;;;;;6.39;74.91;99495.73;2136814;83;21370;-78
2021/10/23 13:54:46;;;;;;;7.17;3.93;;;;;;;6.41;75.28;99498.80;2137163;83;21084;-79
2021/10/23 13:57:47;;;;;;;9.83;4.10;;;;;;;6.38;75.27;99500.45;2137381;83;20921;-79
2021/10/23 14:00:48;;;;;;;11.43;5.23;;;;;;;6.34;75.60;99506.34;2137489;83;20978;-78
2021/10/23 14:03:48;;;;;;;22.07;8.20;;;;;;;6.35;75.34;99505.92;2137102;83;21286;-79
2021/10/23 14:06:49;;;;;;;22.37;9.20;;;;;;;6.30;75.92;99520.00;2137138;83;21368;-79
2021/10/23 14:09:49;;;;;;;22.53;8.47;;;;;;;6.28;76.31;99519.47;2138329;83;20910;-78
2021/10/23 14:12:50;;;;;;;18.00;7.77;;;;;;;6.25;75.83;99517.64;2060525;87;20958;-79
2021/10/23 14:15:50;;;;;;;16.67;6.53;;;;;;;6.21;76.09;99527.42;2152812;82;20934;-79
2021/10/23 14:18:51;;;;;;;16.63;7.77;;;;;;;6.16;76.35;99528.06;2153303;83;20986;-78
2021/10/23 14:21:52;;;;;;;17.13;6.60;;;;;;;6.13;75.86;99530.13;2060112;86;20966;-80